Station Historical Data
Daily Summary for November 11, 2017 Units:  English    Metric   Both
« Previous Day
Next Day »
Daily Weekly Monthly Yearly Custom
  High: Low: Average:
Temperature: 35.7 °F 17.4 °F 27.1 °F
Dew Point: 18.5 °F 12.9 °F 15.9 °F
Humidity: 85% 43% 64%
Wind Speed: 10.0mph 0.0mph 1.5mph
Wind Gust: 16.0mph - -
Wind- - ESE
Pressure: 30.68 in 30.38 in -
Precipitation: 0.00 in    
Historical Graphs
 
 
Tabular Data for November 11, 2017
Time Temperature Dew Point Pressure Wind Wind Speed Wind Gust Humidity Rainfall Rate (Hourly)
00:04 21.3 °F 13.7 °F 30.63 in Calm   3.0 mph 72% 0.00 in
00:09 21.1 °F 13.8 °F 30.63 in Calm   3.0 mph 73% 0.00 in
00:14 21.1 °F 13.8 °F 30.63 in West 1.0 mph 3.0 mph 73% 0.00 in
00:19 21.0 °F 13.7 °F 30.63 in Calm     73% 0.00 in
00:24 20.9 °F 13.6 °F 30.63 in Calm   3.0 mph 73% 0.00 in
00:29 20.7 °F 13.4 °F 30.63 in Calm     73% 0.00 in
00:34 20.5 °F 13.5 °F 30.63 in Calm     74% 0.00 in
00:39 20.2 °F 13.2 °F 30.63 in Calm     74% 0.00 in
00:44 20.0 °F 13.0 °F 30.62 in Calm     74% 0.00 in
00:49 19.7 °F 13.1 °F 30.63 in Calm     75% 0.00 in
00:54 19.4 °F 13.1 °F 30.63 in Calm     76% 0.00 in
00:59 19.3 °F 13.0 °F 30.63 in Calm     76% 0.00 in
01:04 19.3 °F 13.3 °F 30.64 in Calm     77% 0.00 in
01:09 19.3 °F 13.3 °F 30.64 in Calm     77% 0.00 in
01:14 19.1 °F 13.1 °F 30.64 in Calm     77% 0.00 in
01:19 19.0 °F 13.0 °F 30.63 in Calm     77% 0.00 in
01:24 18.9 °F 12.9 °F 30.63 in Calm     77% 0.00 in
01:29 18.8 °F 13.1 °F 30.63 in Calm     78% 0.00 in
01:34 18.6 °F 12.9 °F 30.63 in Calm     78% 0.00 in
01:39 18.8 °F 13.4 °F 30.63 in Calm     79% 0.00 in
01:44 19.0 °F 13.6 °F 30.63 in Calm     79% 0.00 in
01:49 19.2 °F 13.8 °F 30.63 in Calm     79% 0.00 in
01:54 19.3 °F 13.9 °F 30.63 in Calm     79% 0.00 in
01:59 19.6 °F 14.4 °F 30.64 in Calm     80% 0.00 in
02:04 19.8 °F 14.3 °F 30.65 in Calm     79% 0.00 in
02:09 20.0 °F 14.5 °F 30.64 in Calm     79% 0.00 in
02:14 20.1 °F 14.6 °F 30.64 in Calm     79% 0.00 in
02:19 20.1 °F 14.6 °F 30.65 in Calm     79% 0.00 in
02:24 20.1 °F 14.6 °F 30.65 in Calm     79% 0.00 in
02:29 20.2 °F 14.7 °F 30.64 in Calm     79% 0.00 in
02:34 20.3 °F 14.8 °F 30.64 in Calm     79% 0.00 in
02:39 20.4 °F 14.9 °F 30.64 in Calm     79% 0.00 in
02:44 20.3 °F 14.8 °F 30.64 in Calm     79% 0.00 in
02:49 20.4 °F 14.9 °F 30.64 in Calm     79% 0.00 in
02:54 20.4 °F 14.9 °F 30.64 in Calm     79% 0.00 in
02:59 20.6 °F 15.1 °F 30.64 in Calm     79% 0.00 in
03:04 20.7 °F 15.2 °F 30.64 in Calm     79% 0.00 in
03:09 20.7 °F 15.2 °F 30.64 in Calm     79% 0.00 in
03:14 20.8 °F 15.3 °F 30.64 in Calm     79% 0.00 in
03:19 20.8 °F 15.3 °F 30.64 in Calm     79% 0.00 in
03:24 20.9 °F 15.4 °F 30.64 in Calm     79% 0.00 in
03:29 20.6 °F 15.1 °F 30.64 in Calm     79% 0.00 in
03:34 20.5 °F 15.0 °F 30.64 in Calm     79% 0.00 in
03:39 20.3 °F 14.8 °F 30.64 in Calm     79% 0.00 in
03:44 20.4 °F 15.2 °F 30.64 in Calm     80% 0.00 in
03:49 20.5 °F 15.0 °F 30.64 in Calm     79% 0.00 in
03:54 20.5 °F 15.0 °F 30.64 in Calm     79% 0.00 in
03:59 20.4 °F 14.9 °F 30.64 in Calm     79% 0.00 in
04:04 20.2 °F 14.7 °F 30.64 in Calm     79% 0.00 in
04:09 20.2 °F 15.0 °F 30.64 in Calm     80% 0.00 in
04:14 20.1 °F 14.9 °F 30.64 in Calm     80% 0.00 in
04:19 20.0 °F 14.8 °F 30.64 in Calm     80% 0.00 in
04:24 19.8 °F 14.6 °F 30.64 in Calm     80% 0.00 in
04:29 19.6 °F 14.7 °F 30.64 in Calm     81% 0.00 in
04:34 19.3 °F 14.4 °F 30.64 in Calm     81% 0.00 in
04:39 19.1 °F 14.2 °F 30.64 in Calm     81% 0.00 in
04:44 18.8 °F 14.2 °F 30.64 in Calm     82% 0.00 in
04:49 18.7 °F 14.1 °F 30.64 in Calm     82% 0.00 in
04:54 18.5 °F 13.9 °F 30.64 in Calm     82% 0.00 in
04:59 18.2 °F 13.6 °F 30.64 in Calm     82% 0.00 in
05:04 18.0 °F 13.7 °F 30.64 in Calm     83% 0.00 in
05:09 17.9 °F 13.6 °F 30.64 in Calm     83% 0.00 in
05:14 17.8 °F 13.5 °F 30.64 in Calm     83% 0.00 in
05:19 18.1 °F 14.1 °F 30.64 in Calm     84% 0.00 in
05:24 18.4 °F 14.4 °F 30.64 in Calm     84% 0.00 in
05:29 18.3 °F 14.0 °F 30.64 in Calm     83% 0.00 in
05:34 18.4 °F 14.1 °F 30.64 in Calm     83% 0.00 in
05:39 18.4 °F 14.1 °F 30.64 in Calm     83% 0.00 in
05:44 18.4 °F 14.4 °F 30.64 in Calm     84% 0.00 in
05:49 18.3 °F 14.0 °F 30.64 in Calm     83% 0.00 in
05:54 18.1 °F 13.8 °F 30.65 in Calm     83% 0.00 in
05:59 17.8 °F 13.5 °F 30.64 in Calm     83% 0.00 in
06:04 17.7 °F 13.7 °F 30.64 in Calm     84% 0.00 in
06:09 17.7 °F 13.7 °F 30.64 in Calm     84% 0.00 in
06:14 17.6 °F 13.6 °F 30.64 in Calm     84% 0.00 in
06:19 17.7 °F 13.7 °F 30.64 in Calm     84% 0.00 in
06:24 17.6 °F 13.6 °F 30.65 in Calm     84% 0.00 in
06:29 17.6 °F 13.6 °F 30.65 in Calm     84% 0.00 in
06:34 17.7 °F 13.7 °F 30.65 in Calm     84% 0.00 in
06:39 17.6 °F 13.6 °F 30.65 in Calm     84% 0.00 in
06:44 17.5 °F 13.5 °F 30.65 in Calm     84% 0.00 in
06:49 17.6 °F 13.6 °F 30.65 in Calm     84% 0.00 in
06:54 17.6 °F 13.6 °F 30.65 in Calm     84% 0.00 in
06:59 17.7 °F 13.7 °F 30.65 in Calm     84% 0.00 in
07:04 17.5 °F 13.5 °F 30.65 in Calm     84% 0.00 in
07:09 17.5 °F 13.5 °F 30.64 in Calm     84% 0.00 in
07:14 17.4 °F 13.7 °F 30.65 in Calm     85% 0.00 in
07:19 17.5 °F 13.8 °F 30.65 in Calm     85% 0.00 in
07:24 17.5 °F 13.5 °F 30.65 in Calm     84% 0.00 in
07:29 17.6 °F 13.9 °F 30.66 in Calm     85% 0.00 in
07:34 17.8 °F 14.1 °F 30.66 in Calm     85% 0.00 in
07:39 17.8 °F 13.8 °F 30.66 in Calm     84% 0.00 in
07:44 18.0 °F 14.0 °F 30.66 in Calm     84% 0.00 in
07:49 18.4 °F 14.6 °F 30.66 in Calm     85% 0.00 in
07:54 18.7 °F 14.7 °F 30.67 in Calm     84% 0.00 in
07:59 19.0 °F 15.0 °F 30.67 in Calm   3.0 mph 84% 0.00 in
08:04 19.5 °F 15.5 °F 30.66 in Calm   3.0 mph 84% 0.00 in
08:09 19.9 °F 15.6 °F 30.67 in Calm   2.0 mph 83% 0.00 in
08:14 20.3 °F 15.7 °F 30.67 in Calm     82% 0.00 in
08:19 20.8 °F 16.2 °F 30.67 in West 1.0 mph 2.0 mph 82% 0.00 in
08:24 21.2 °F 16.3 °F 30.67 in WSW 1.0 mph 1.0 mph 81% 0.00 in
08:29 21.4 °F 15.9 °F 30.67 in Calm   3.0 mph 79% 0.00 in
08:34 21.5 °F 16.0 °F 30.67 in Calm   3.0 mph 79% 0.00 in
08:39 21.7 °F 15.9 °F 30.67 in Calm   2.0 mph 78% 0.00 in
08:44 22.0 °F 15.9 °F 30.67 in South 1.0 mph 3.0 mph 77% 0.00 in
08:49 22.3 °F 16.2 °F 30.67 in South 1.0 mph 3.0 mph 77% 0.00 in
08:54 22.5 °F 16.1 °F 30.67 in South 2.0 mph 3.0 mph 76% 0.00 in
08:59 22.7 °F 16.3 °F 30.67 in Calm   2.0 mph 76% 0.00 in
09:04 23.1 °F 16.7 °F 30.68 in South 1.0 mph 2.0 mph 76% 0.00 in
09:09 23.4 °F 16.3 °F 30.67 in Calm   3.0 mph 74% 0.00 in
09:14 24.1 °F 17.3 °F 30.67 in Calm   2.0 mph 75% 0.00 in
09:19 24.7 °F 17.3 °F 30.67 in Calm   3.0 mph 73% 0.00 in
09:24 25.0 °F 17.6 °F 30.67 in ESE 2.0 mph 4.0 mph 73% 0.00 in
09:29 25.2 °F 17.1 °F 30.67 in East 1.0 mph 6.0 mph 71% 0.00 in
09:34 25.4 °F 17.0 °F 30.66 in Calm   5.0 mph 70% 0.00 in
09:39 26.2 °F 18.1 °F 30.66 in ENE 2.0 mph 5.0 mph 71% 0.00 in
09:44 26.5 °F 18.0 °F 30.66 in East 2.0 mph 6.0 mph 70% 0.00 in
09:49 26.7 °F 17.6 °F 30.65 in SE 4.0 mph 10.0 mph 68% 0.00 in
09:54 26.9 °F 17.4 °F 30.65 in East 2.0 mph 7.0 mph 67% 0.00 in
09:59 27.7 °F 17.8 °F 30.65 in East 3.0 mph 8.0 mph 66% 0.00 in
10:04 27.7 °F 17.5 °F 30.65 in ENE 7.0 mph 8.0 mph 65% 0.00 in
10:09 27.8 °F 17.6 °F 30.64 in East 4.0 mph 9.0 mph 65% 0.00 in
10:14 28.4 °F 18.1 °F 30.64 in ENE 3.0 mph 8.0 mph 65% 0.00 in
10:19 28.4 °F 17.8 °F 30.63 in East 2.0 mph 9.0 mph 64% 0.00 in
10:24 28.6 °F 17.6 °F 30.63 in SE 4.0 mph 11.0 mph 63% 0.00 in
10:29 28.8 °F 17.8 °F 30.63 in NE 5.0 mph 9.0 mph 63% 0.00 in
10:34 29.3 °F 18.3 °F 30.63 in NE 4.0 mph 8.0 mph 63% 0.00 in
10:39 29.6 °F 18.2 °F 30.63 in ENE 4.0 mph 10.0 mph 62% 0.00 in
10:44 29.8 °F 18.0 °F 30.63 in East 4.0 mph 10.0 mph 61% 0.00 in
10:49 30.3 °F 17.7 °F 30.62 in ESE 7.0 mph 9.0 mph 59% 0.00 in
10:54 30.6 °F 17.2 °F 30.62 in SE 3.0 mph 10.0 mph 57% 0.00 in
10:59 30.5 °F 16.7 °F 30.61 in SE 5.0 mph 10.0 mph 56% 0.00 in
11:04 30.4 °F 16.6 °F 30.61 in East 5.0 mph 13.0 mph 56% 0.00 in
11:09 31.4 °F 17.9 °F 30.60 in East 5.0 mph 13.0 mph 57% 0.00 in
11:14 31.5 °F 16.7 °F 30.60 in ESE 4.0 mph 13.0 mph 54% 0.00 in
11:19 31.9 °F 17.1 °F 30.60 in East 4.0 mph 9.0 mph 54% 0.00 in
11:24 32.6 °F 17.3 °F 30.59 in East 5.0 mph 10.0 mph 53% 0.00 in
11:29 31.8 °F 16.6 °F 30.59 in ENE 7.0 mph 11.0 mph 53% 0.00 in
11:34 31.7 °F 16.5 °F 30.59 in East 6.0 mph 11.0 mph 53% 0.00 in
11:39 31.7 °F 17.4 °F 30.58 in East 5.0 mph 11.0 mph 55% 0.00 in
11:44 32.7 °F 17.0 °F 30.58 in East 3.0 mph 8.0 mph 52% 0.00 in
11:49 33.0 °F 16.8 °F 30.57 in East 6.0 mph 11.0 mph 51% 0.00 in
11:54 33.2 °F 16.5 °F 30.57 in SE 2.0 mph 12.0 mph 50% 0.00 in
11:59 33.2 °F 16.5 °F 30.56 in ESE 5.0 mph 13.0 mph 50% 0.00 in
12:04 33.2 °F 17.5 °F 30.56 in East 5.0 mph 16.0 mph 52% 0.00 in
12:09 32.9 °F 16.3 °F 30.55 in ENE 5.0 mph 10.0 mph 50% 0.00 in
12:14 32.7 °F 16.5 °F 30.55 in East 5.0 mph 10.0 mph 51% 0.00 in
12:19 32.9 °F 16.7 °F 30.55 in East 10.0 mph 13.0 mph 51% 0.00 in
12:24 33.0 °F 16.4 °F 30.55 in East 5.0 mph 13.0 mph 50% 0.00 in
12:29 33.2 °F 16.5 °F 30.54 in East 1.0 mph 9.0 mph 50% 0.00 in
12:34 33.9 °F 16.7 °F 30.54 in SE 4.0 mph 13.0 mph 49% 0.00 in
12:39 34.0 °F 17.3 °F 30.54 in South 1.0 mph 13.0 mph 50% 0.00 in
12:44 34.4 °F 18.1 °F 30.54 in ENE 5.0 mph 9.0 mph 51% 0.00 in
12:49 34.0 °F 16.8 °F 30.53 in East 6.0 mph 11.0 mph 49% 0.00 in
12:54 34.0 °F 15.9 °F 30.53 in ENE 6.0 mph 13.0 mph 47% 0.00 in
12:59 33.8 °F 15.7 °F 30.53 in ENE 6.0 mph 13.0 mph 47% 0.00 in
13:04 34.2 °F 16.0 °F 30.53 in ENE 4.0 mph 12.0 mph 47% 0.00 in
13:09 34.5 °F 15.8 °F 30.52 in ENE 5.0 mph 12.0 mph 46% 0.00 in
13:14 35.0 °F 16.8 °F 30.52 in SSE 3.0 mph 8.0 mph 47% 0.00 in
13:19 34.8 °F 16.6 °F 30.52 in SE 3.0 mph 7.0 mph 47% 0.00 in
13:24 34.9 °F 14.6 °F 30.52 in ESE 2.0 mph 7.0 mph 43% 0.00 in
13:29 35.2 °F 16.0 °F 30.52 in SE 3.0 mph 7.0 mph 45% 0.00 in
13:34 35.1 °F 14.8 °F 30.52 in ESE 3.0 mph 8.0 mph 43% 0.00 in
13:39 34.7 °F 14.5 °F 30.52 in East 7.0 mph 11.0 mph 43% 0.00 in
13:44 35.1 °F 15.9 °F 30.51 in SE 1.0 mph 7.0 mph 45% 0.00 in
13:49 35.2 °F 14.9 °F 30.51 in NE 4.0 mph 8.0 mph 43% 0.00 in
13:54 35.2 °F 14.9 °F 30.51 in Calm   9.0 mph 43% 0.00 in
13:59 35.5 °F 15.7 °F 30.51 in East 3.0 mph 9.0 mph 44% 0.00 in
14:04 35.4 °F 15.1 °F 30.51 in ENE 3.0 mph 10.0 mph 43% 0.00 in
14:09 35.7 °F 15.9 °F 30.51 in NNE 3.0 mph 10.0 mph 44% 0.00 in
14:14 35.4 °F 15.1 °F 30.51 in SSE 5.0 mph 13.0 mph 43% 0.00 in
14:19 34.4 °F 14.7 °F 30.50 in ESE 4.0 mph 10.0 mph 44% 0.00 in
14:24 34.2 °F 15.0 °F 30.50 in SE 3.0 mph 10.0 mph 45% 0.00 in
14:29 34.8 °F 15.1 °F 30.50 in ESE 3.0 mph 9.0 mph 44% 0.00 in
14:34 34.8 °F 14.5 °F 30.50 in ESE 3.0 mph 9.0 mph 43% 0.00 in
14:39 35.2 °F 14.9 °F 30.50 in East 2.0 mph 7.0 mph 43% 0.00 in
14:44 35.7 °F 15.9 °F 30.50 in East 3.0 mph 7.0 mph 44% 0.00 in
14:49 35.7 °F 15.9 °F 30.50 in SE 4.0 mph 8.0 mph 44% 0.00 in
14:54 35.7 °F 15.4 °F 30.49 in East 6.0 mph 6.0 mph 43% 0.00 in
14:59 35.6 °F 15.8 °F 30.49 in SE 2.0 mph 8.0 mph 44% 0.00 in
15:04 35.4 °F 15.1 °F 30.48 in ESE 3.0 mph 7.0 mph 43% 0.00 in
15:09 35.4 °F 16.1 °F 30.48 in South 5.0 mph 7.0 mph 45% 0.00 in
15:14 35.2 °F 16.0 °F 30.47 in East 2.0 mph 8.0 mph 45% 0.00 in
15:19 35.3 °F 15.5 °F 30.47 in East 3.0 mph 8.0 mph 44% 0.00 in
15:24 35.0 °F 16.3 °F 30.47 in East 3.0 mph 8.0 mph 46% 0.00 in
15:29 35.0 °F 16.3 °F 30.47 in East 3.0 mph 8.0 mph 46% 0.00 in
15:34 34.9 °F 15.7 °F 30.47 in ESE 2.0 mph 7.0 mph 45% 0.00 in
15:39 35.0 °F 16.3 °F 30.47 in ESE 2.0 mph 7.0 mph 46% 0.00 in
15:44 34.6 °F 15.9 °F 30.47 in ENE 1.0 mph 8.0 mph 46% 0.00 in
15:49 34.7 °F 16.0 °F 30.47 in East 1.0 mph 5.0 mph 46% 0.00 in
15:54 34.8 °F 16.1 °F 30.47 in ENE 1.0 mph 5.0 mph 46% 0.00 in
15:59 34.5 °F 15.8 °F 30.47 in East 2.0 mph 8.0 mph 46% 0.00 in
16:04 34.3 °F 16.1 °F 30.47 in ENE 2.0 mph 6.0 mph 47% 0.00 in
16:09 34.1 °F 16.4 °F 30.47 in SE 2.0 mph 5.0 mph 48% 0.00 in
16:14 34.2 °F 16.0 °F 30.47 in SE 3.0 mph 5.0 mph 47% 0.00 in
16:19 34.2 °F 16.5 °F 30.46 in SE 2.0 mph 5.0 mph 48% 0.00 in
16:24 34.1 °F 16.4 °F 30.46 in ESE 2.0 mph 5.0 mph 48% 0.00 in
16:29 33.9 °F 16.3 °F 30.46 in East 3.0 mph 7.0 mph 48% 0.00 in
16:34 33.8 °F 16.2 °F 30.46 in East 5.0 mph 7.0 mph 48% 0.00 in
16:39 33.7 °F 16.1 °F 30.45 in ENE 2.0 mph 7.0 mph 48% 0.00 in
16:44 33.7 °F 16.5 °F 30.45 in Calm   6.0 mph 49% 0.00 in
16:49 33.6 °F 16.5 °F 30.45 in East 3.0 mph 7.0 mph 49% 0.00 in
16:54 33.5 °F 16.4 °F 30.45 in East 2.0 mph 7.0 mph 49% 0.00 in
16:59 33.3 °F 16.6 °F 30.45 in East 2.0 mph 6.0 mph 50% 0.00 in
17:04 33.0 °F 16.8 °F 30.45 in East 2.0 mph 6.0 mph 51% 0.00 in
17:09 32.9 °F 17.2 °F 30.45 in ENE 1.0 mph 3.0 mph 52% 0.00 in
17:14 32.6 °F 17.3 °F 30.45 in ENE 2.0 mph 4.0 mph 53% 0.00 in
17:19 32.4 °F 17.2 °F 30.45 in NE 1.0 mph 4.0 mph 53% 0.00 in
17:24 32.4 °F 17.2 °F 30.45 in ENE 2.0 mph 5.0 mph 53% 0.00 in
17:29 32.2 °F 17.4 °F 30.45 in ENE 2.0 mph 5.0 mph 54% 0.00 in
17:34 32.2 °F 17.4 °F 30.45 in ENE 2.0 mph 5.0 mph 54% 0.00 in
17:39 32.0 °F 17.2 °F 30.45 in ENE 2.0 mph 4.0 mph 54% 0.00 in
17:44 32.0 °F 17.2 °F 30.45 in East 3.0 mph 5.0 mph 54% 0.00 in
17:49 31.9 °F 17.1 °F 30.45 in NE 2.0 mph 5.0 mph 54% 0.00 in
17:54 31.9 °F 17.1 °F 30.45 in East 2.0 mph 5.0 mph 54% 0.00 in
17:59 31.8 °F 17.0 °F 30.45 in East 2.0 mph 5.0 mph 54% 0.00 in
18:04 31.8 °F 17.0 °F 30.45 in East 2.0 mph 5.0 mph 54% 0.00 in
18:09 31.7 °F 16.9 °F 30.45 in ENE 2.0 mph 5.0 mph 54% 0.00 in
18:14 31.7 °F 16.9 °F 30.45 in ENE 2.0 mph 5.0 mph 54% 0.00 in
18:19 31.6 °F 16.8 °F 30.44 in East 1.0 mph 6.0 mph 54% 0.00 in
18:24 31.6 °F 16.8 °F 30.44 in ENE 2.0 mph 6.0 mph 54% 0.00 in
18:29 31.7 °F 16.9 °F 30.44 in Calm   7.0 mph 54% 0.00 in
18:34 31.7 °F 16.9 °F 30.44 in East 1.0 mph 5.0 mph 54% 0.00 in
18:39 31.7 °F 16.9 °F 30.44 in East 5.0 mph 6.0 mph 54% 0.00 in
18:44 31.8 °F 16.6 °F 30.44 in East 1.0 mph 7.0 mph 53% 0.00 in
18:49 31.8 °F 17.0 °F 30.43 in ENE 5.0 mph 5.0 mph 54% 0.00 in
18:54 31.8 °F 17.0 °F 30.43 in ENE 2.0 mph 7.0 mph 54% 0.00 in
18:59 31.7 °F 16.9 °F 30.43 in ENE 2.0 mph 7.0 mph 54% 0.00 in
19:04 31.6 °F 17.3 °F 30.43 in ENE 3.0 mph 8.0 mph 55% 0.00 in
19:09 31.5 °F 17.2 °F 30.43 in ENE 2.0 mph 8.0 mph 55% 0.00 in
19:14 31.4 °F 17.1 °F 30.43 in East 2.0 mph 7.0 mph 55% 0.00 in
19:19 31.3 °F 17.4 °F 30.43 in East 3.0 mph 7.0 mph 56% 0.00 in
19:24 31.2 °F 17.3 °F 30.43 in Calm   6.0 mph 56% 0.00 in
19:29 31.2 °F 16.9 °F 30.43 in East 2.0 mph 7.0 mph 55% 0.00 in
19:34 31.1 °F 16.8 °F 30.43 in NE 1.0 mph 7.0 mph 55% 0.00 in
19:39 31.1 °F 16.8 °F 30.43 in East 3.0 mph 8.0 mph 55% 0.00 in
19:44 31.1 °F 16.8 °F 30.43 in East 2.0 mph 8.0 mph 55% 0.00 in
19:49 31.0 °F 17.1 °F 30.42 in ESE 2.0 mph 5.0 mph 56% 0.00 in
19:54 31.0 °F 17.1 °F 30.42 in SE 1.0 mph 5.0 mph 56% 0.00 in
19:59 30.9 °F 17.0 °F 30.42 in SE 2.0 mph 7.0 mph 56% 0.00 in
20:04 30.9 °F 17.0 °F 30.42 in SE 2.0 mph 7.0 mph 56% 0.00 in
20:09 30.9 °F 17.4 °F 30.43 in SE 2.0 mph 6.0 mph 57% 0.00 in
20:14 30.9 °F 17.4 °F 30.43 in SE 1.0 mph 5.0 mph 57% 0.00 in
20:19 30.8 °F 17.3 °F 30.43 in SE 2.0 mph 5.0 mph 57% 0.00 in
20:24 30.8 °F 17.3 °F 30.43 in SE 1.0 mph 5.0 mph 57% 0.00 in
20:29 30.7 °F 17.3 °F 30.43 in Calm   3.0 mph 57% 0.00 in
20:34 30.7 °F 17.7 °F 30.43 in Calm   3.0 mph 58% 0.00 in
20:39 30.7 °F 17.7 °F 30.42 in Calm     58% 0.00 in
20:44 30.7 °F 17.7 °F 30.42 in Calm   3.0 mph 58% 0.00 in
20:49 30.6 °F 18.0 °F 30.42 in East 3.0 mph 5.0 mph 59% 0.00 in
20:54 30.7 °F 18.1 °F 30.41 in ENE 3.0 mph 5.0 mph 59% 0.00 in
20:59 30.6 °F 18.0 °F 30.41 in ESE 1.0 mph 4.0 mph 59% 0.00 in
21:04 30.5 °F 18.3 °F 30.41 in ESE 1.0 mph 4.0 mph 60% 0.00 in
21:09 30.5 °F 18.3 °F 30.41 in SE 1.0 mph 4.0 mph 60% 0.00 in
21:14 30.4 °F 18.2 °F 30.40 in SE 1.0 mph 4.0 mph 60% 0.00 in
21:19 30.3 °F 18.1 °F 30.40 in Calm   4.0 mph 60% 0.00 in
21:24 30.3 °F 18.5 °F 30.40 in Calm     61% 0.00 in
21:29 30.3 °F 18.5 °F 30.40 in Calm   2.0 mph 61% 0.00 in
21:34 30.5 °F 18.3 °F 30.40 in Calm   2.0 mph 60% 0.00 in
21:39 30.6 °F 18.3 °F 30.39 in Calm   2.0 mph 60% 0.00 in
21:44 30.9 °F 18.2 °F 30.39 in Calm   5.0 mph 59% 0.00 in
21:49 31.2 °F 18.1 °F 30.39 in Calm     58% 0.00 in
21:54 31.4 °F 17.9 °F 30.40 in Calm     57% 0.00 in
21:59 31.5 °F 17.6 °F 30.40 in Calm   3.0 mph 56% 0.00 in
22:04 31.5 °F 17.6 °F 30.39 in SSE 1.0 mph 4.0 mph 56% 0.00 in
22:09 31.6 °F 17.3 °F 30.39 in SSE 2.0 mph 6.0 mph 55% 0.00 in
22:19 31.5 °F 16.7 °F 30.39 in South 3.0 mph 5.0 mph 54% 0.00 in
22:24 31.5 °F 17.2 °F 30.39 in SSE 2.0 mph 5.0 mph 55% 0.00 in
22:34 30.9 °F 17.4 °F 30.39 in SSE 1.0 mph 4.0 mph 57% 0.00 in
22:39 30.7 °F 17.3 °F 30.38 in SSE 1.0 mph 5.0 mph 57% 0.00 in
22:44 30.6 °F 17.2 °F 30.38 in SSE 1.0 mph 5.0 mph 57% 0.00 in
22:49 30.5 °F 17.1 °F 30.38 in South 2.0 mph 5.0 mph 57% 0.00 in
22:54 30.5 °F 17.1 °F 30.39 in Calm   7.0 mph 57% 0.00 in
22:59 30.3 °F 16.9 °F 30.38 in Calm   1.0 mph 57% 0.00 in
23:04 30.2 °F 16.8 °F 30.39 in Calm   1.0 mph 57% 0.00 in
23:09 29.8 °F 16.8 °F 30.38 in Calm     58% 0.00 in
23:14 29.5 °F 16.9 °F 30.39 in Calm     59% 0.00 in
23:19 29.2 °F 17.0 °F 30.38 in Calm     60% 0.00 in
23:24 29.2 °F 17.0 °F 30.38 in Calm     60% 0.00 in
23:29 28.7 °F 16.9 °F 30.39 in Calm     61% 0.00 in
23:34 28.2 °F 17.2 °F 30.39 in Calm     63% 0.00 in
23:39 27.8 °F 17.2 °F 30.39 in Calm     64% 0.00 in
23:44 27.9 °F 17.6 °F 30.39 in Calm     65% 0.00 in
23:49 27.9 °F 17.3 °F 30.39 in Calm     64% 0.00 in
23:54 28.1 °F 17.8 °F 30.39 in Calm     65% 0.00 in
23:59 28.4 °F 17.8 °F 30.39 in Calm     64% 0.00 in
Buffalo, New York, USA
Compliments of Weather Underground - 2.5 mb